Time;durP1;ratioP1;P1;durP2;ratioP2;P2;SDS_P1;SDS_P2;PMS_P1;PMS_P2;Temp;Humidity;BMP_temperature;BMP_pressure;BME280_temperature;BME280_humidity;BME280_pressure;Samples;Min_cycle;Max_cycle;Signal;HPM_P1;HPM_P2
2023/12/12 00:02:15;;;;;;;62.10;37.67;;;;;;;;;;12983222;22;20420;-89
2023/12/12 00:07:17;;;;;;;58.05;36.03;;;;;;;;;;12983073;22;20372;-89
2023/12/12 00:12:20;;;;;;;59.95;35.63;;;;;;;;;;12982296;22;20431;-88
2023/12/12 00:17:24;;;;;;;57.03;34.38;;;;;;;;;;12980897;22;20567;-89
2023/12/12 00:22:26;;;;;;;58.65;33.65;;;;;;;;;;12981920;22;20408;-89
2023/12/12 00:27:29;;;;;;;60.45;35.00;;;;;;;;;;12982098;22;20827;-90
2023/12/12 00:32:34;;;;;;;57.40;33.37;;;;;;;;;;12980204;22;20377;-89
2023/12/12 00:37:36;;;;;;;58.17;34.35;;;;;;;;;;12985061;22;20368;-89
2023/12/12 00:42:38;;;;;;;54.03;33.27;;;;;;;;;;12984866;22;20366;-89
2023/12/12 00:47:43;;;;;;;60.90;33.30;;;;;;;;;;12985050;22;20415;-89
2023/12/12 00:52:45;;;;;;;56.20;32.72;;;;;;;;;;12984046;22;20457;-88
2023/12/12 00:57:47;;;;;;;56.80;33.30;;;;;;;;;;12983139;22;20362;-89
2023/12/12 01:02:51;;;;;;;57.90;35.25;;;;;;;;;;12983386;22;20942;-89
2023/12/12 01:07:54;;;;;;;60.13;36.00;;;;;;;;;;12985013;22;20376;-89
2023/12/12 01:12:56;;;;;;;56.03;33.67;;;;;;;;;;13005732;22;20423;-88
2023/12/12 01:18:00;;;;;;;54.97;31.80;;;;;;;;;;12985164;22;20918;-89
2023/12/12 01:23:02;;;;;;;54.85;33.33;;;;;;;;;;13005959;22;20933;-90
2023/12/12 01:28:05;;;;;;;57.40;34.37;;;;;;;;;;12985639;22;20899;-89
2023/12/12 01:33:09;;;;;;;56.63;34.50;;;;;;;;;;12982891;22;20431;-89
2023/12/12 01:38:11;;;;;;;55.22;33.78;;;;;;;;;;12984399;22;20381;-90
2023/12/12 01:43:13;;;;;;;51.05;32.42;;;;;;;;;;12983750;22;20357;-89
2023/12/12 01:48:17;;;;;;;51.13;32.05;;;;;;;;;;12983846;22;20359;-89
2023/12/12 01:53:23;;;;;;;54.73;33.27;;;;;;;;;;12983390;22;20374;-89
2023/12/12 01:58:26;;;;;;;49.15;30.17;;;;;;;;;;13005980;22;20389;-89
2023/12/12 02:03:31;;;;;;;47.47;29.77;;;;;;;;;;12983656;22;20389;-90
2023/12/12 02:08:33;;;;;;;47.92;29.02;;;;;;;;;;12984537;22;20751;-90
2023/12/12 02:13:35;;;;;;;46.67;28.00;;;;;;;;;;12983619;22;20383;-90
2023/12/12 02:18:39;;;;;;;43.60;27.37;;;;;;;;;;12983542;22;20361;-90
2023/12/12 02:23:43;;;;;;;42.22;27.10;;;;;;;;;;12983553;22;20869;-90
2023/12/12 02:28:46;;;;;;;47.83;27.17;;;;;;;;;;12984421;22;20434;-90
2023/12/12 02:33:48;;;;;;;44.37;27.10;;;;;;;;;;12978547;22;20467;-90
2023/12/12 02:38:52;;;;;;;42.10;26.33;;;;;;;;;;12983529;22;20739;-90
2023/12/12 02:43:54;;;;;;;40.70;24.90;;;;;;;;;;12983353;22;20370;-90
2023/12/12 02:48:57;;;;;;;47.67;28.77;;;;;;;;;;12983152;22;20892;-89
2023/12/12 02:54:00;;;;;;;54.53;32.55;;;;;;;;;;12983899;22;20362;-89
2023/12/12 02:59:03;;;;;;;51.53;30.85;;;;;;;;;;12982709;22;20436;-89
2023/12/12 03:04:05;;;;;;;37.72;25.55;;;;;;;;;;12984469;22;20351;-89
2023/12/12 03:09:09;;;;;;;40.13;26.52;;;;;;;;;;12982951;22;20367;-89
2023/12/12 03:14:11;;;;;;;44.50;27.33;;;;;;;;;;12984931;22;20450;-90
2023/12/12 03:19:14;;;;;;;39.70;22.88;;;;;;;;;;12982580;22;20399;-90
2023/12/12 03:24:18;;;;;;;33.58;21.55;;;;;;;;;;13004202;22;20433;-89
2023/12/12 03:29:20;;;;;;;31.40;20.90;;;;;;;;;;12983196;22;20366;-89
2023/12/12 03:34:23;;;;;;;27.70;17.98;;;;;;;;;;12981568;22;20367;-89
2023/12/12 03:39:27;;;;;;;30.13;18.87;;;;;;;;;;12980457;22;20440;-89
2023/12/12 03:44:29;;;;;;;31.23;18.15;;;;;;;;;;12983549;22;20421;-89
2023/12/12 03:49:31;;;;;;;27.30;17.63;;;;;;;;;;12981320;22;20430;-89
2023/12/12 03:54:35;;;;;;;25.80;17.00;;;;;;;;;;13005108;22;20354;-88
2023/12/12 03:59:37;;;;;;;28.00;17.40;;;;;;;;;;12981799;22;20463;-89
2023/12/12 04:04:40;;;;;;;23.38;14.95;;;;;;;;;;13004192;22;20354;-89
2023/12/12 04:09:44;;;;;;;21.08;13.73;;;;;;;;;;12984923;22;20378;-89
2023/12/12 04:14:47;;;;;;;19.10;12.68;;;;;;;;;;12988193;22;20374;-89
2023/12/12 04:19:49;;;;;;;22.08;12.98;;;;;;;;;;12986441;22;20420;-89
2023/12/12 04:24:53;;;;;;;16.23;10.32;;;;;;;;;;12986072;22;20371;-89
2023/12/12 04:29:56;;;;;;;17.58;10.82;;;;;;;;;;12987489;22;20387;-89
2023/12/12 04:34:58;;;;;;;16.95;10.68;;;;;;;;;;12986762;22;20451;-88
2023/12/12 04:40:02;;;;;;;14.83;9.60;;;;;;;;;;13007827;22;20363;-89
2023/12/12 04:45:05;;;;;;;18.83;9.65;;;;;;;;;;12986732;22;20479;-89
2023/12/12 04:50:09;;;;;;;15.77;9.95;;;;;;;;;;12986606;22;20390;-89
2023/12/12 04:55:13;;;;;;;15.50;10.23;;;;;;;;;;12985541;22;20467;-89
2023/12/12 05:00:16;;;;;;;16.10;9.15;;;;;;;;;;12985523;22;20370;-90
2023/12/12 05:05:18;;;;;;;14.70;9.13;;;;;;;;;;12985558;22;20507;-89
2023/12/12 05:10:22;;;;;;;12.70;8.75;;;;;;;;;;12986453;22;20371;-89
2023/12/12 05:15:24;;;;;;;14.00;9.03;;;;;;;;;;12985825;22;20448;-91
2023/12/12 05:20:27;;;;;;;12.40;8.38;;;;;;;;;;12994385;22;20366;-89
2023/12/12 05:25:31;;;;;;;13.02;8.50;;;;;;;;;;12985920;22;20363;-88
2023/12/12 05:30:33;;;;;;;12.57;8.55;;;;;;;;;;12985758;22;20538;-88
2023/12/12 05:35:35;;;;;;;12.53;8.50;;;;;;;;;;12986443;22;20429;-88
2023/12/12 05:40:39;;;;;;;15.55;9.05;;;;;;;;;;12985822;22;20401;-89
2023/12/12 05:45:42;;;;;;;12.83;8.47;;;;;;;;;;12985532;22;20375;-88
2023/12/12 05:50:44;;;;;;;13.88;9.15;;;;;;;;;;12985333;22;20405;-89
2023/12/12 05:55:48;;;;;;;15.05;8.98;;;;;;;;;;12984872;22;20820;-89
2023/12/12 06:00:51;;;;;;;13.18;7.53;;;;;;;;;;12985396;22;20362;-89
2023/12/12 06:05:53;;;;;;;11.73;7.55;;;;;;;;;;12982938;22;20363;-88
2023/12/12 06:10:57;;;;;;;12.82;7.80;;;;;;;;;;13006443;22;20382;-88
2023/12/12 06:15:59;;;;;;;12.40;7.73;;;;;;;;;;13004685;22;20429;-87
2023/12/12 06:21:02;;;;;;;12.60;8.95;;;;;;;;;;13004369;22;20398;-88
2023/12/12 06:26:06;;;;;;;14.43;8.20;;;;;;;;;;12982077;22;20359;-88
2023/12/12 06:31:09;;;;;;;13.20;8.30;;;;;;;;;;13001992;22;20384;-88
2023/12/12 06:36:11;;;;;;;13.55;7.93;;;;;;;;;;13003979;22;20691;-88
2023/12/12 06:41:15;;;;;;;12.80;7.97;;;;;;;;;;13004268;22;20916;-86
2023/12/12 06:46:18;;;;;;;14.80;8.87;;;;;;;;;;12982204;22;21242;-93
2023/12/12 06:51:21;;;;;;;15.50;9.77;;;;;;;;;;12981869;22;20387;-90
2023/12/12 06:56:24;;;;;;;16.80;10.32;;;;;;;;;;12980700;22;20441;-89
2023/12/12 07:01:27;;;;;;;14.93;10.45;;;;;;;;;;12980091;22;20374;-90
2023/12/12 07:06:29;;;;;;;14.57;9.45;;;;;;;;;;12978830;22;20427;-89
2023/12/12 07:11:33;;;;;;;16.20;9.60;;;;;;;;;;12980842;22;20378;-89
2023/12/12 07:16:35;;;;;;;14.68;8.80;;;;;;;;;;12980799;22;20420;-87
2023/12/12 07:21:41;;;;;;;14.02;8.50;;;;;;;;;;12980980;22;20403;-90
2023/12/12 07:26:46;;;;;;;13.30;7.93;;;;;;;;;;12976335;22;20413;-90
2023/12/12 07:31:50;;;;;;;13.30;7.88;;;;;;;;;;12977118;22;20409;-89
2023/12/12 07:36:52;;;;;;;13.15;8.30;;;;;;;;;;12976932;22;20444;-90
2023/12/12 07:41:56;;;;;;;14.70;8.68;;;;;;;;;;12980755;22;20405;-89
2023/12/12 07:47:01;;;;;;;19.58;13.63;;;;;;;;;;12980828;22;20428;-89
2023/12/12 07:52:03;;;;;;;17.73;11.02;;;;;;;;;;12985027;22;20391;-90
2023/12/12 07:57:07;;;;;;;21.37;10.83;;;;;;;;;;12984506;22;20409;-88
2023/12/12 08:02:10;;;;;;;16.27;10.03;;;;;;;;;;12985953;22;20600;-90
2023/12/12 08:12:46;;;;;;;16.60;10.27;;;;;;;;;;12982580;22;20989;-90
2023/12/12 08:17:48;;;;;;;18.08;11.68;;;;;;;;;;12987362;22;20374;-90
2023/12/12 08:22:51;;;;;;;26.77;16.17;;;;;;;;;;12984292;22;20394;-88
2023/12/12 08:27:56;;;;;;;28.20;16.60;;;;;;;;;;13062619;22;20420;-84
2023/12/12 08:32:59;;;;;;;25.63;16.83;;;;;;;;;;13118891;22;20462;-85
2023/12/12 08:38:02;;;;;;;27.40;17.33;;;;;;;;;;13102669;22;20437;-86
2023/12/12 08:43:05;;;;;;;31.05;18.38;;;;;;;;;;13106004;22;20371;-85
2023/12/12 08:48:08;;;;;;;28.77;18.67;;;;;;;;;;13102751;22;20363;-86
2023/12/12 08:53:11;;;;;;;33.00;19.17;;;;;;;;;;13126254;22;20367;-86
2023/12/12 08:58:15;;;;;;;30.75;19.08;;;;;;;;;;13103606;22;20834;-86
2023/12/12 09:03:17;;;;;;;28.35;17.98;;;;;;;;;;13103379;22;20777;-86
2023/12/12 09:08:19;;;;;;;26.58;18.23;;;;;;;;;;13105342;22;20363;-86
2023/12/12 09:13:23;;;;;;;27.65;18.75;;;;;;;;;;13105818;22;20375;-86
2023/12/12 09:18:26;;;;;;;28.83;17.50;;;;;;;;;;13105954;22;20445;-85
2023/12/12 09:23:30;;;;;;;31.90;20.23;;;;;;;;;;13139097;22;20387;-86
2023/12/12 09:28:35;;;;;;;29.90;20.13;;;;;;;;;;13122723;22;20359;-87
2023/12/12 09:33:38;;;;;;;33.17;19.97;;;;;;;;;;13104918;22;20931;-87
2023/12/12 09:38:40;;;;;;;27.97;19.00;;;;;;;;;;13107572;22;20369;-86
2023/12/12 09:43:45;;;;;;;24.73;16.88;;;;;;;;;;13105096;22;20400;-86
2023/12/12 09:48:49;;;;;;;27.95;17.15;;;;;;;;;;13106843;22;20402;-85
2023/12/12 09:53:52;;;;;;;25.23;16.48;;;;;;;;;;13105086;22;20750;-84
2023/12/12 09:58:56;;;;;;;22.73;15.03;;;;;;;;;;13105524;22;20424;-87
2023/12/12 10:04:01;;;;;;;23.27;14.15;;;;;;;;;;13104868;22;21114;-86
2023/12/12 10:09:04;;;;;;;23.45;14.25;;;;;;;;;;13106270;22;20433;-87
2023/12/12 10:14:08;;;;;;;22.67;14.65;;;;;;;;;;13105116;22;20375;-87
2023/12/12 10:19:12;;;;;;;22.95;15.35;;;;;;;;;;13105947;22;20364;-86
2023/12/12 10:24:26;;;;;;;24.70;14.87;;;;;;;;;;13107982;22;20363;-86
2023/12/12 10:29:29;;;;;;;23.25;15.55;;;;;;;;;;13118768;22;20424;-86
2023/12/12 10:34:32;;;;;;;24.67;15.50;;;;;;;;;;13101932;22;20785;-86
2023/12/12 10:39:34;;;;;;;26.15;15.60;;;;;;;;;;13101437;22;20355;-87
2023/12/12 10:44:41;;;;;;;21.25;14.27;;;;;;;;;;13103646;22;20471;-86
2023/12/12 10:49:45;;;;;;;27.05;19.63;;;;;;;;;;13104232;22;20359;-87
2023/12/12 10:54:48;;;;;;;23.83;15.88;;;;;;;;;;13104629;22;20383;-86
2023/12/12 10:59:53;;;;;;;24.38;15.05;;;;;;;;;;13105487;22;20397;-85
2023/12/12 11:04:57;;;;;;;23.33;15.27;;;;;;;;;;13104949;22;20364;-86
2023/12/12 11:09:59;;;;;;;24.60;15.73;;;;;;;;;;13104421;22;20355;-86
2023/12/12 11:15:07;;;;;;;28.73;16.80;;;;;;;;;;13103687;22;20445;-86
2023/12/12 11:20:13;;;;;;;30.23;18.42;;;;;;;;;;13125710;22;20667;-86
2023/12/12 11:25:19;;;;;;;27.57;18.27;;;;;;;;;;13123572;22;20432;-86
2023/12/12 11:30:31;;;;;;;26.77;18.10;;;;;;;;;;13104244;22;20729;-87
2023/12/12 11:35:34;;;;;;;28.23;17.57;;;;;;;;;;13104368;22;20379;-86
2023/12/12 11:40:37;;;;;;;30.30;19.65;;;;;;;;;;13103814;22;20428;-87
2023/12/12 11:45:43;;;;;;;30.75;18.58;;;;;;;;;;13102610;22;20339;-87
2023/12/12 11:50:46;;;;;;;30.63;19.67;;;;;;;;;;13125446;22;20733;-86
2023/12/12 11:55:50;;;;;;;28.95;19.05;;;;;;;;;;13124984;22;20375;-87
2023/12/12 12:00:53;;;;;;;27.05;17.88;;;;;;;;;;13104681;22;20734;-86
2023/12/12 12:05:56;;;;;;;27.43;18.47;;;;;;;;;;13123259;22;20359;-87
2023/12/12 12:10:58;;;;;;;32.67;19.60;;;;;;;;;;13105737;22;20363;-87
2023/12/12 12:16:02;;;;;;;27.65;17.58;;;;;;;;;;13097489;22;20375;-86
2023/12/12 12:21:07;;;;;;;31.10;18.43;;;;;;;;;;13104312;22;20452;-86
2023/12/12 12:26:09;;;;;;;28.98;17.35;;;;;;;;;;13136997;22;20389;-86
2023/12/12 12:31:13;;;;;;;27.98;16.75;;;;;;;;;;13101269;22;20892;-87
2023/12/12 12:36:16;;;;;;;25.50;15.50;;;;;;;;;;13102414;22;20452;-87
2023/12/12 12:41:24;;;;;;;23.33;14.00;;;;;;;;;;13102810;22;20359;-87
2023/12/12 12:46:28;;;;;;;19.60;11.27;;;;;;;;;;13103923;22;20929;-86
2023/12/12 12:51:30;;;;;;;17.83;11.15;;;;;;;;;;13106182;22;20634;-87
2023/12/12 12:56:33;;;;;;;19.65;11.10;;;;;;;;;;13104142;22;20379;-87
2023/12/12 13:01:40;;;;;;;23.30;10.70;;;;;;;;;;13127135;22;20897;-86
2023/12/12 13:06:43;;;;;;;15.63;9.40;;;;;;;;;;13118193;22;20667;-86
2023/12/12 13:11:45;;;;;;;19.20;10.50;;;;;;;;;;13099845;22;20876;-86
2023/12/12 13:16:49;;;;;;;20.43;10.87;;;;;;;;;;13100838;22;20372;-87
2023/12/12 13:21:52;;;;;;;16.60;10.60;;;;;;;;;;13098555;22;20467;-88
2023/12/12 13:26:54;;;;;;;19.38;10.10;;;;;;;;;;13090755;22;20685;-87
2023/12/12 13:31:59;;;;;;;15.65;9.05;;;;;;;;;;13035311;22;20376;-86
2023/12/12 13:37:01;;;;;;;20.35;11.23;;;;;;;;;;13039772;22;20380;-86
2023/12/12 13:42:04;;;;;;;23.23;11.73;;;;;;;;;;13041663;22;20369;-88
2023/12/12 13:47:08;;;;;;;16.70;11.00;;;;;;;;;;13040069;22;20411;-87
2023/12/12 13:52:10;;;;;;;20.60;12.40;;;;;;;;;;13040621;22;20360;-87
2023/12/12 13:57:13;;;;;;;23.90;15.13;;;;;;;;;;13062314;22;20422;-88
2023/12/12 14:02:16;;;;;;;25.27;15.23;;;;;;;;;;13039956;22;20365;-87
2023/12/12 14:07:19;;;;;;;21.20;14.17;;;;;;;;;;13040206;22;20426;-86
2023/12/12 14:12:21;;;;;;;23.85;14.65;;;;;;;;;;13059723;22;20353;-87
2023/12/12 14:17:25;;;;;;;24.67;16.07;;;;;;;;;;13037255;22;20358;-87
2023/12/12 14:22:28;;;;;;;22.00;15.05;;;;;;;;;;13037883;22;20782;-87
2023/12/12 14:27:31;;;;;;;21.50;15.18;;;;;;;;;;13096099;22;20440;-88
2023/12/12 14:32:36;;;;;;;26.38;16.00;;;;;;;;;;13103576;22;21224;-87
2023/12/12 14:37:40;;;;;;;24.67;15.68;;;;;;;;;;13125166;22;20352;-87
2023/12/12 14:42:44;;;;;;;22.15;14.57;;;;;;;;;;13103598;22;20362;-87
2023/12/12 14:47:48;;;;;;;22.47;15.57;;;;;;;;;;13104232;22;20454;-88
2023/12/12 14:52:50;;;;;;;21.80;14.23;;;;;;;;;;13103120;22;20367;-86
2023/12/12 14:57:53;;;;;;;21.52;13.73;;;;;;;;;;13106417;22;20367;-88
2023/12/12 15:02:57;;;;;;;20.98;14.25;;;;;;;;;;13107549;22;20355;-88
2023/12/12 15:07:59;;;;;;;23.23;14.95;;;;;;;;;;13106139;22;20409;-87
2023/12/12 15:13:02;;;;;;;25.58;15.95;;;;;;;;;;13103261;22;20483;-87
2023/12/12 15:18:06;;;;;;;28.83;16.35;;;;;;;;;;13125775;22;20355;-87
2023/12/12 15:23:08;;;;;;;23.55;14.00;;;;;;;;;;13108402;22;20363;-87
2023/12/12 15:28:11;;;;;;;38.50;17.92;;;;;;;;;;13120507;22;20432;-87
2023/12/12 15:33:15;;;;;;;32.90;17.13;;;;;;;;;;13098630;22;20432;-88
2023/12/12 15:38:18;;;;;;;36.53;17.55;;;;;;;;;;13092100;22;20368;-87
2023/12/12 15:43:20;;;;;;;42.15;19.83;;;;;;;;;;13099384;22;20363;-87
2023/12/12 15:48:24;;;;;;;42.28;18.88;;;;;;;;;;13099819;22;20835;-86
2023/12/12 15:53:27;;;;;;;25.70;15.97;;;;;;;;;;13099406;22;20379;-88
2023/12/12 15:58:29;;;;;;;32.05;16.42;;;;;;;;;;13101040;22;20396;-86
2023/12/12 16:03:33;;;;;;;23.73;15.73;;;;;;;;;;13122072;22;20891;-87
2023/12/12 16:08:36;;;;;;;23.98;15.18;;;;;;;;;;13104874;22;20359;-87
2023/12/12 16:13:38;;;;;;;24.80;16.50;;;;;;;;;;13103860;22;20436;-87
2023/12/12 16:18:43;;;;;;;26.23;17.27;;;;;;;;;;13103859;22;20375;-86
2023/12/12 16:23:46;;;;;;;40.67;23.43;;;;;;;;;;13143172;22;20355;-87
2023/12/12 16:28:49;;;;;;;32.28;19.05;;;;;;;;;;13103123;22;20420;-87
2023/12/12 16:33:53;;;;;;;37.90;20.20;;;;;;;;;;13100966;22;20383;-87
2023/12/12 16:38:59;;;;;;;51.35;27.60;;;;;;;;;;13102775;22;20363;-85
2023/12/12 16:44:04;;;;;;;37.50;22.85;;;;;;;;;;13101435;22;20363;-87
2023/12/12 16:49:08;;;;;;;29.40;19.67;;;;;;;;;;13102701;22;20356;-84
2023/12/12 16:54:10;;;;;;;28.93;19.20;;;;;;;;;;13099955;22;20438;-86
2023/12/12 16:59:13;;;;;;;27.20;18.93;;;;;;;;;;13126033;22;20741;-89
2023/12/12 17:04:17;;;;;;;30.63;19.55;;;;;;;;;;13106601;22;20803;-89
2023/12/12 17:09:20;;;;;;;31.77;20.65;;;;;;;;;;13108885;22;20398;-89
2023/12/12 17:14:22;;;;;;;39.47;27.60;;;;;;;;;;13129511;22;20607;-88
2023/12/12 17:19:26;;;;;;;34.80;22.38;;;;;;;;;;13103103;22;20364;-88
2023/12/12 17:24:28;;;;;;;37.17;23.48;;;;;;;;;;13108647;22;20367;-88
2023/12/12 17:29:32;;;;;;;37.25;24.60;;;;;;;;;;13102658;22;20372;-87
2023/12/12 17:34:39;;;;;;;66.68;34.33;;;;;;;;;;13102141;22;20367;-86
2023/12/12 17:39:42;;;;;;;99.07;53.17;;;;;;;;;;13102817;22;20448;-86
2023/12/12 17:44:45;;;;;;;35.57;23.53;;;;;;;;;;13103322;22;20371;-87
2023/12/12 17:49:49;;;;;;;36.30;24.17;;;;;;;;;;13098732;22;20359;-87
2023/12/12 17:54:51;;;;;;;30.85;19.40;;;;;;;;;;13095558;22;20387;-86
2023/12/12 17:59:54;;;;;;;32.70;19.53;;;;;;;;;;13097412;22;20367;-87
2023/12/12 18:04:57;;;;;;;35.50;23.10;;;;;;;;;;13095537;22;20691;-88
2023/12/12 18:10:00;;;;;;;32.08;20.55;;;;;;;;;;13098950;22;20375;-89
2023/12/12 18:15:02;;;;;;;41.57;25.63;;;;;;;;;;13098447;22;20375;-89
2023/12/12 18:20:08;;;;;;;35.27;22.67;;;;;;;;;;13114991;22;20425;-89
2023/12/12 18:25:16;;;;;;;43.58;27.55;;;;;;;;;;13106041;22;20908;-89
2023/12/12 18:30:24;;;;;;;39.43;24.43;;;;;;;;;;13125003;22;20363;-90
2023/12/12 18:35:30;;;;;;;36.03;23.77;;;;;;;;;;13135630;22;20972;-90
2023/12/12 18:40:33;;;;;;;34.28;22.75;;;;;;;;;;13101212;22;20379;-92
2023/12/12 18:45:38;;;;;;;50.45;28.83;;;;;;;;;;13101041;22;20375;-90
2023/12/12 18:50:46;;;;;;;41.00;26.40;;;;;;;;;;13091412;22;20375;-87
2023/12/12 18:55:50;;;;;;;41.67;25.75;;;;;;;;;;13102749;22;20380;-88
2023/12/12 19:00:58;;;;;;;36.40;23.07;;;;;;;;;;13092493;22;20436;-89
2023/12/12 19:06:02;;;;;;;35.88;23.15;;;;;;;;;;13096769;22;20375;-90
2023/12/12 19:11:11;;;;;;;40.15;24.67;;;;;;;;;;13091705;22;20387;-90
2023/12/12 19:16:15;;;;;;;34.90;20.95;;;;;;;;;;13096002;22;20436;-87
2023/12/12 19:21:24;;;;;;;30.30;20.30;;;;;;;;;;13119457;22;20881;-89
2023/12/12 19:26:27;;;;;;;37.47;23.03;;;;;;;;;;13096388;22;20701;-89
2023/12/12 19:31:30;;;;;;;37.03;22.60;;;;;;;;;;13096033;22;20424;-88
2023/12/12 19:36:34;;;;;;;38.37;24.90;;;;;;;;;;13097242;22;20473;-88
2023/12/12 19:41:39;;;;;;;37.25;23.48;;;;;;;;;;13096565;22;20379;-87
2023/12/12 19:46:46;;;;;;;39.17;24.77;;;;;;;;;;13099109;22;20801;-86
2023/12/12 19:51:56;;;;;;;41.53;25.35;;;;;;;;;;13097427;22;20359;-88
2023/12/12 19:56:59;;;;;;;38.47;23.73;;;;;;;;;;13087885;22;20929;-87
2023/12/12 20:02:02;;;;;;;36.65;23.60;;;;;;;;;;13092683;22;20375;-87
2023/12/12 20:07:10;;;;;;;36.72;22.50;;;;;;;;;;13110582;22;20367;-87
2023/12/12 20:12:15;;;;;;;36.58;24.13;;;;;;;;;;13093647;22;20375;-88
2023/12/12 20:17:20;;;;;;;43.33;26.15;;;;;;;;;;13098187;22;20383;-86
2023/12/12 20:22:24;;;;;;;41.88;24.73;;;;;;;;;;13088392;22;20375;-89
2023/12/12 20:27:29;;;;;;;40.20;24.73;;;;;;;;;;13112087;22;20430;-85
2023/12/12 20:32:32;;;;;;;41.17;24.80;;;;;;;;;;13090419;22;20363;-87
2023/12/12 20:37:36;;;;;;;39.37;24.70;;;;;;;;;;13080895;22;20379;-88
2023/12/12 20:42:38;;;;;;;42.50;25.10;;;;;;;;;;13093224;22;20446;-87
2023/12/12 20:47:40;;;;;;;42.03;25.05;;;;;;;;;;13091784;22;20379;-88
2023/12/12 20:52:44;;;;;;;44.03;26.05;;;;;;;;;;13102954;22;20517;-87
2023/12/12 20:57:47;;;;;;;41.35;24.50;;;;;;;;;;13097460;22;20508;-86
2023/12/12 21:02:49;;;;;;;38.90;25.02;;;;;;;;;;13095731;22;20371;-87
2023/12/12 21:07:53;;;;;;;48.53;29.43;;;;;;;;;;13097946;22;20406;-87
2023/12/12 21:12:56;;;;;;;54.70;31.65;;;;;;;;;;13109170;22;20750;-88
2023/12/12 21:17:59;;;;;;;51.40;31.07;;;;;;;;;;13094994;22;20375;-87
2023/12/12 21:23:03;;;;;;;43.93;27.47;;;;;;;;;;13094690;22;20421;-88
2023/12/12 21:28:05;;;;;;;43.58;27.08;;;;;;;;;;13100166;22;20425;-89
2023/12/12 21:33:08;;;;;;;46.13;27.92;;;;;;;;;;13098487;22;20371;-91
2023/12/12 21:38:12;;;;;;;46.83;27.45;;;;;;;;;;13100506;22;20437;-90
2023/12/12 21:43:14;;;;;;;45.80;27.60;;;;;;;;;;13100766;22;20379;-90
2023/12/12 21:48:17;;;;;;;44.38;27.15;;;;;;;;;;13103906;22;20367;-92
2023/12/12 21:53:21;;;;;;;43.08;27.23;;;;;;;;;;13105010;22;20401;-91
2023/12/12 21:58:23;;;;;;;44.70;28.27;;;;;;;;;;13106942;22;20416;-91
2023/12/12 22:03:26;;;;;;;44.73;27.63;;;;;;;;;;13108809;22;20371;-89
2023/12/12 22:08:30;;;;;;;45.50;27.83;;;;;;;;;;13109882;22;20355;-91
2023/12/12 22:13:32;;;;;;;43.77;28.00;;;;;;;;;;13145777;22;20417;-90
2023/12/12 22:18:34;;;;;;;47.17;29.63;;;;;;;;;;13101240;22;20456;-89
2023/12/12 22:23:38;;;;;;;47.17;28.58;;;;;;;;;;13124134;22;20999;-89
2023/12/12 22:28:41;;;;;;;54.60;31.15;;;;;;;;;;13101405;22;20367;-87
2023/12/12 22:33:43;;;;;;;50.85;30.58;;;;;;;;;;13103708;22;20367;-89
2023/12/12 22:38:48;;;;;;;49.63;30.63;;;;;;;;;;13098031;22;20375;-90
2023/12/12 22:43:50;;;;;;;47.37;28.53;;;;;;;;;;13101618;22;20410;-91
2023/12/12 22:48:53;;;;;;;47.43;27.87;;;;;;;;;;13109704;22;20378;-89
2023/12/12 22:53:56;;;;;;;44.67;27.45;;;;;;;;;;13103104;22;20404;-88
2023/12/12 22:59:00;;;;;;;45.90;27.88;;;;;;;;;;13101899;22;20379;-89
2023/12/12 23:04:02;;;;;;;45.17;26.33;;;;;;;;;;13105201;22;20420;-90
2023/12/12 23:09:10;;;;;;;47.53;26.75;;;;;;;;;;13117899;22;20363;-89
2023/12/12 23:14:12;;;;;;;43.65;26.75;;;;;;;;;;13109440;22;20362;-89
2023/12/12 23:19:14;;;;;;;43.53;26.90;;;;;;;;;;13131980;22;20375;-91
2023/12/12 23:24:18;;;;;;;44.20;27.63;;;;;;;;;;13111537;22;20359;-91
2023/12/12 23:29:21;;;;;;;46.40;28.02;;;;;;;;;;13109150;22;20364;-92
2023/12/12 23:34:23;;;;;;;49.63;28.70;;;;;;;;;;13112822;22;20367;-91
2023/12/12 23:39:27;;;;;;;45.60;28.50;;;;;;;;;;13114469;22;20897;-90
2023/12/12 23:44:29;;;;;;;50.83;29.40;;;;;;;;;;13159210;22;20372;-89
2023/12/12 23:49:32;;;;;;;49.70;28.80;;;;;;;;;;13120180;22;20827;-89
2023/12/12 23:54:36;;;;;;;44.20;26.60;;;;;;;;;;13110541;22;20363;-91
2023/12/12 23:59:38;;;;;;;41.92;25.55;;;;;;;;;;13109378;22;20376;-90
